Terminal Aerodrome Forecast
Issued by NWS Twin Cities, MN

Home | Current Version | Previous Version | Graphics & Text | Print | Product List | Glossary On
Versions: 1 2 3 4 5 6 7 8 9 10 11 12 13 14 15 16
000
FTUS43 KMPX 170300 AAA
TAFEAU
TAF AMD
KEAU 170313Z 1703/1724 08010KT P6SM -RA SCT025 OVC035
      TEMPO 1703/1705 4SM -RA BR BKN025
     FM170500 01007KT 4SM -RA OVC025
      TEMPO 1707/1710 2SM -RASN OVC020
     FM171000 32008KT 5SM BR OVC012
     FM171400 32010KT P6SM OVC015
     FM171800 31009KT P6SM OVC025
     FM172100 31009KT P6SM OVC050=

USA.gov is the U.S. government's official web portal to all federal, state and local government web resources and services.